Time;durP1;ratioP1;P1;durP2;ratioP2;P2;SDS_P1;SDS_P2;PMS_P1;PMS_P2;Temp;Humidity;BMP_temperature;BMP_pressure;BME280_temperature;BME280_humidity;BME280_pressure;Samples;Min_cycle;Max_cycle;Signal;HPM_P1;HPM_P2
2020/12/20 00:03:18;;;;;;;16.90;10.30;;;11.80;83.00;;;;;;8378284;28;20486;-77
2020/12/20 00:07:19;;;;;;;20.50;11.30;;;11.70;83.00;;;;;;8378748;28;20241;-77
2020/12/20 00:11:32;;;;;;;21.70;9.87;;;11.70;83.10;;;;;;8370231;28;20197;-77
2020/12/20 00:15:32;;;;;;;14.80;11.83;;;11.70;83.00;;;;;;8371695;28;20221;-77
2020/12/20 00:19:42;;;;;;;18.37;10.00;;;11.70;83.00;;;;;;8369644;28;20439;-77
2020/12/20 00:23:42;;;;;;;14.70;11.57;;;11.60;82.90;;;;;;8377471;28;21145;-77
2020/12/20 00:27:52;;;;;;;16.27;10.50;;;11.60;83.00;;;;;;8367033;28;21073;-80
2020/12/20 00:31:53;;;;;;;16.33;11.27;;;11.50;83.10;;;;;;8352536;28;20214;-77
2020/12/20 00:35:54;;;;;;;22.03;11.17;;;11.50;83.20;;;;;;8389313;28;20474;-78
2020/12/20 00:39:58;;;;;;;18.70;11.93;;;11.50;83.30;;;;;;8376740;28;20289;-76
2020/12/20 00:43:59;;;;;;;16.83;11.67;;;11.40;83.20;;;;;;8382904;28;20286;-77
2020/12/20 00:48:02;;;;;;;16.87;11.03;;;11.40;83.30;;;;;;8384214;28;20455;-77
2020/12/20 00:52:05;;;;;;;14.20;10.23;;;11.40;83.40;;;;;;8379818;28;20289;-77
2020/12/20 00:56:12;;;;;;;16.50;11.90;;;11.40;83.50;;;;;;8386242;28;20474;-77
2020/12/20 01:00:17;;;;;;;21.40;10.77;;;11.40;83.60;;;;;;8383043;28;20503;-77
2020/12/20 01:04:19;;;;;;;14.60;10.87;;;11.40;84.00;;;;;;8346305;28;20453;-77
2020/12/20 01:08:20;;;;;;;15.63;10.10;;;11.40;83.70;;;;;;8386699;28;20954;-77
2020/12/20 01:12:24;;;;;;;16.07;10.60;;;11.40;83.80;;;;;;8384130;28;20948;-77
2020/12/20 01:16:26;;;;;;;19.63;10.93;;;11.50;83.80;;;;;;8381161;28;20813;-77
2020/12/20 01:20:28;;;;;;;19.70;10.77;;;11.50;83.70;;;;;;8389962;28;20441;-77
2020/12/20 01:24:32;;;;;;;13.63;10.80;;;11.50;83.60;;;;;;8383436;28;20480;-77
2020/12/20 01:28:37;;;;;;;14.27;10.33;;;11.50;83.50;;;;;;8382701;28;20455;-77
2020/12/20 01:32:38;;;;;;;15.30;11.07;;;11.50;83.50;;;;;;8369704;28;20513;-77
2020/12/20 01:36:40;;;;;;;22.90;10.40;;;11.50;83.70;;;;;;8383343;28;20475;-78
2020/12/20 01:40:40;;;;;;;17.03;10.57;;;11.50;83.80;;;;;;8383398;28;20862;-77
2020/12/20 01:44:43;;;;;;;19.57;11.47;;;11.50;83.90;;;;;;8383662;28;20881;-77
2020/12/20 01:48:46;;;;;;;15.63;11.10;;;11.50;83.90;;;;;;8385144;28;20209;-77
2020/12/20 01:52:49;;;;;;;18.20;11.57;;;11.50;83.90;;;;;;8416106;28;20454;-77
2020/12/20 01:56:50;;;;;;;12.13;10.47;;;11.50;83.90;;;;;;8385680;28;20478;-77
2020/12/20 02:00:54;;;;;;;13.40;10.13;;;11.50;84.40;;;;;;8383905;28;20442;-76
2020/12/20 02:04:56;;;;;;;14.90;11.33;;;11.50;83.90;;;;;;8405297;28;20181;-77
2020/12/20 02:09:03;;;;;;;13.53;10.33;;;11.50;84.20;;;;;;8402483;28;20440;-76
2020/12/20 02:13:07;;;;;;;17.30;11.50;;;11.50;84.30;;;;;;8382518;28;20440;-77
2020/12/20 02:17:10;;;;;;;13.00;10.80;;;11.40;84.30;;;;;;8374944;28;20526;-77
2020/12/20 02:21:14;;;;;;;15.63;10.00;;;11.40;84.50;;;;;;8377683;28;20445;-76
2020/12/20 02:25:18;;;;;;;14.37;10.30;;;11.40;84.70;;;;;;8384330;28;20472;-76
2020/12/20 02:29:22;;;;;;;13.37;9.03;;;11.40;84.80;;;;;;8388167;28;21287;-77
2020/12/20 02:33:23;;;;;;;13.17;9.63;;;11.40;85.00;;;;;;8384631;28;20970;-76
2020/12/20 02:37:27;;;;;;;11.27;9.87;;;11.50;85.20;;;;;;8377309;28;20976;-77
2020/12/20 02:41:42;;;;;;;11.90;9.20;;;11.60;85.10;;;;;;8381554;28;20193;-77
2020/12/20 02:45:43;;;;;;;16.80;9.50;;;11.60;84.90;;;;;;8379812;28;20445;-76
2020/12/20 02:49:51;;;;;;;16.73;8.63;;;11.60;84.80;;;;;;8384817;28;20458;-76
2020/12/20 02:53:51;;;;;;;15.37;9.57;;;11.70;84.90;;;;;;8394366;28;20236;-77
2020/12/20 02:57:56;;;;;;;14.53;10.07;;;11.60;84.90;;;;;;8390360;28;20456;-76
2020/12/20 03:02:05;;;;;;;14.07;8.67;;;11.70;84.90;;;;;;8410961;28;20283;-76
2020/12/20 03:06:06;;;;;;;17.30;9.97;;;11.80;84.60;;;;;;8376729;28;20539;-76
2020/12/20 03:10:11;;;;;;;15.30;7.50;;;11.90;84.60;;;;;;8378370;28;20440;-76
2020/12/20 03:14:11;;;;;;;12.07;8.53;;;12.00;84.60;;;;;;8372983;28;20230;-76
2020/12/20 03:18:12;;;;;;;10.93;7.87;;;12.00;84.40;;;;;;8375949;28;20526;-76
2020/12/20 03:22:15;;;;;;;10.90;7.00;;;12.00;84.30;;;;;;8374530;28;20898;-77
2020/12/20 03:26:15;;;;;;;11.00;7.60;;;12.00;84.30;;;;;;8374320;28;20611;-76
2020/12/20 03:30:16;;;;;;;14.93;7.90;;;12.00;84.20;;;;;;8366847;28;21473;-77
2020/12/20 03:34:19;;;;;;;8.23;7.40;;;12.00;84.10;;;;;;8373249;28;20247;-76
2020/12/20 03:38:20;;;;;;;9.57;6.47;;;12.00;84.20;;;;;;8369495;28;20652;-76
2020/12/20 03:42:21;;;;;;;9.50;7.00;;;11.90;84.20;;;;;;8361118;28;20824;-76
2020/12/20 03:46:21;;;;;;;12.20;9.50;;;11.90;84.20;;;;;;8386145;28;20821;-77
2020/12/20 03:50:32;;;;;;;18.23;8.87;;;11.90;84.40;;;;;;8377540;28;20335;-77
2020/12/20 03:54:40;;;;;;;14.80;8.90;;;11.80;84.40;;;;;;8359817;28;20273;-77
2020/12/20 03:58:52;;;;;;;9.43;8.50;;;11.70;84.60;;;;;;8385660;28;20497;-77
2020/12/20 04:02:53;;;;;;;11.90;9.10;;;11.70;84.90;;;;;;8374316;28;20534;-76
2020/12/20 04:06:56;;;;;;;18.90;11.33;;;11.60;85.10;;;;;;8376245;28;20460;-76
2020/12/20 04:10:59;;;;;;;17.93;10.87;;;11.60;85.30;;;;;;8370154;28;20245;-76
2020/12/20 04:14:59;;;;;;;14.33;9.57;;;11.60;85.60;;;;;;8377169;28;20968;-76
2020/12/20 04:19:00;;;;;;;12.87;10.10;;;11.50;85.70;;;;;;8381229;28;20443;-77
2020/12/20 04:23:03;;;;;;;13.87;9.97;;;11.50;85.90;;;;;;8383506;28;20200;-75
2020/12/20 04:27:03;;;;;;;13.10;9.83;;;11.50;86.50;;;;;;8378294;28;20218;-75
2020/12/20 04:31:08;;;;;;;15.27;11.00;;;11.50;85.80;;;;;;8415391;28;20477;-75
2020/12/20 04:35:09;;;;;;;13.40;10.50;;;11.50;85.80;;;;;;8366337;28;20671;-75
2020/12/20 04:39:10;;;;;;;16.60;10.60;;;11.50;85.90;;;;;;8364506;28;21025;-76
2020/12/20 04:43:12;;;;;;;19.80;11.20;;;11.50;85.80;;;;;;8382873;28;20193;-76
2020/12/20 04:47:15;;;;;;;14.53;10.50;;;11.40;86.00;;;;;;8385648;28;20205;-77
2020/12/20 04:51:21;;;;;;;18.93;11.67;;;11.30;86.10;;;;;;8381137;28;20486;-77
2020/12/20 04:55:22;;;;;;;15.33;11.30;;;11.30;86.30;;;;;;8392789;28;20476;-76
2020/12/20 04:59:25;;;;;;;20.90;13.23;;;11.20;86.50;;;;;;8380441;28;20454;-75
2020/12/20 05:03:27;;;;;;;17.40;13.00;;;11.10;86.60;;;;;;8378692;28;20443;-76
2020/12/20 05:07:30;;;;;;;22.53;11.60;;;11.20;87.00;;;;;;8382918;28;20521;-75
2020/12/20 05:11:36;;;;;;;24.57;12.47;;;11.20;87.10;;;;;;8378859;28;20912;-76
2020/12/20 05:15:40;;;;;;;20.30;12.33;;;11.10;87.00;;;;;;8384010;28;20475;-76
2020/12/20 05:19:45;;;;;;;19.60;12.50;;;11.20;87.00;;;;;;8384758;28;20458;-76
2020/12/20 05:23:45;;;;;;;14.90;11.40;;;11.10;86.90;;;;;;8382037;28;21030;-76
2020/12/20 05:27:46;;;;;;;22.27;13.80;;;11.10;86.80;;;;;;8380635;28;20499;-76
2020/12/20 05:31:47;;;;;;;14.70;10.20;;;11.10;87.30;;;;;;8382324;28;20192;-76
2020/12/20 05:36:07;;;;;;;18.07;10.80;;;11.10;87.50;;;;;;8401852;28;20253;-76
2020/12/20 05:40:30;;;;;;;13.83;9.77;;;11.10;87.70;;;;;;8401784;28;20438;-76
2020/12/20 05:44:38;;;;;;;14.30;10.30;;;11.10;87.70;;;;;;8389578;28;20451;-76
2020/12/20 05:48:38;;;;;;;20.67;11.03;;;11.10;87.80;;;;;;8381710;28;20460;-76
2020/12/20 05:52:42;;;;;;;17.00;11.27;;;11.20;87.80;;;;;;8381814;28;20451;-75
2020/12/20 05:56:42;;;;;;;17.07;11.30;;;11.20;87.70;;;;;;8377806;28;20563;-75
2020/12/20 06:00:52;;;;;;;17.03;10.67;;;11.20;87.60;;;;;;8358985;28;20808;-75
2020/12/20 06:04:54;;;;;;;22.13;13.90;;;11.20;87.40;;;;;;8379884;28;20285;-75
2020/12/20 06:09:01;;;;;;;17.10;12.00;;;11.20;87.50;;;;;;8377430;28;20472;-76
2020/12/20 06:13:08;;;;;;;14.43;11.57;;;11.20;87.50;;;;;;8390318;28;20547;-75
2020/12/20 06:17:08;;;;;;;16.67;12.03;;;11.20;87.50;;;;;;8378273;28;20532;-76
2020/12/20 06:21:13;;;;;;;18.83;11.00;;;11.20;87.50;;;;;;8389298;28;20431;-76
2020/12/20 06:25:17;;;;;;;27.37;11.30;;;11.20;87.50;;;;;;8372490;28;20214;-76
2020/12/20 06:29:20;;;;;;;18.43;11.93;;;11.20;87.40;;;;;;8393606;28;20443;-76
2020/12/20 06:33:36;;;;;;;16.60;12.53;;;11.30;87.60;;;;;;8382292;28;20462;-76
2020/12/20 06:37:42;;;;;;;19.27;12.33;;;11.20;87.50;;;;;;8383839;28;20460;-75
2020/12/20 06:41:51;;;;;;;21.90;12.67;;;11.20;87.50;;;;;;8373833;28;20526;-76
2020/12/20 06:45:59;;;;;;;22.37;13.43;;;11.20;87.60;;;;;;8395749;28;20463;-76
2020/12/20 06:50:04;;;;;;;19.00;11.10;;;11.20;87.70;;;;;;8376235;28;20448;-76
2020/12/20 06:54:08;;;;;;;16.30;10.50;;;11.20;87.90;;;;;;8387564;28;20480;-76
2020/12/20 06:58:17;;;;;;;15.03;9.87;;;11.20;88.00;;;;;;8383101;28;20451;-76
2020/12/20 07:02:47;;;;;;;11.60;7.27;;;11.30;87.70;;;;;;8376668;28;20531;-76
2020/12/20 07:07:07;;;;;;;11.73;7.40;;;11.40;87.70;;;;;;8387554;28;20465;-76
2020/12/20 07:11:25;;;;;;;14.17;9.80;;;11.40;87.40;;;;;;8380420;28;20451;-76
2020/12/20 07:15:47;;;;;;;23.73;11.60;;;11.50;87.10;;;;;;8374554;28;20479;-75
2020/12/20 07:20:08;;;;;;;22.00;13.07;;;11.40;86.60;;;;;;8379372;28;20452;-76
2020/12/20 07:24:17;;;;;;;21.33;13.67;;;11.30;86.50;;;;;;8373538;28;20515;-76
2020/12/20 07:28:18;;;;;;;23.23;13.97;;;11.20;86.60;;;;;;8367425;28;20504;-76
2020/12/20 07:32:25;;;;;;;25.00;14.70;;;11.00;87.00;;;;;;8393028;28;20444;-76
2020/12/20 07:36:42;;;;;;;17.00;12.70;;;10.90;87.70;;;;;;8380192;28;20980;-76
2020/12/20 07:40:50;;;;;;;13.50;8.40;;;10.90;88.20;;;;;;8380039;28;20454;-76
2020/12/20 07:44:56;;;;;;;10.53;7.80;;;11.00;88.60;;;;;;8363856;28;20447;-75
2020/12/20 07:49:07;;;;;;;10.03;7.90;;;11.10;87.90;;;;;;8371273;28;20436;-75
2020/12/20 07:53:11;;;;;;;12.40;7.77;;;11.10;87.20;;;;;;8381602;28;20453;-75
2020/12/20 07:57:17;;;;;;;22.47;7.83;;;11.10;86.80;;;;;;8379363;28;20507;-75
2020/12/20 08:01:24;;;;;;;16.37;11.43;;;11.10;87.30;;;;;;8376495;28;20558;-76
2020/12/20 08:05:35;;;;;;;20.13;13.40;;;11.00;87.30;;;;;;8374833;28;20514;-76
2020/12/20 08:09:38;;;;;;;18.70;13.57;;;10.90;87.10;;;;;;8393433;28;20443;-75
2020/12/20 08:13:54;;;;;;;10.20;7.37;;;10.90;87.70;;;;;;8373188;28;20546;-76
2020/12/20 08:17:59;;;;;;;29.83;11.93;;;10.90;88.10;;;;;;8396273;28;20204;-75
2020/12/20 08:22:05;;;;;;;19.03;13.27;;;11.00;88.00;;;;;;8378258;28;20455;-75
2020/12/20 08:26:11;;;;;;;22.60;12.60;;;11.00;87.90;;;;;;8372122;28;20801;-75
2020/12/20 08:30:11;;;;;;;24.90;15.27;;;11.10;87.70;;;;;;8362440;28;20461;-75
2020/12/20 08:34:23;;;;;;;21.57;14.80;;;11.20;87.50;;;;;;8374644;28;20447;-76
2020/12/20 08:38:23;;;;;;;22.10;11.13;;;11.20;87.40;;;;;;8373751;28;20206;-75
2020/12/20 08:42:33;;;;;;;27.00;11.60;;;11.30;87.10;;;;;;8394622;28;20443;-76
2020/12/20 08:46:39;;;;;;;10.80;8.57;;;11.40;86.90;;;;;;8371023;28;20955;-75
2020/12/20 08:50:41;;;;;;;14.70;8.27;;;11.50;86.60;;;;;;8369680;28;20459;-75
2020/12/20 08:54:48;;;;;;;21.83;16.17;;;11.60;86.10;;;;;;8378714;28;20583;-75
2020/12/20 08:58:56;;;;;;;9.53;7.57;;;11.80;85.50;;;;;;8373526;28;20450;-75
2020/12/20 09:02:58;;;;;;;18.13;5.37;;;12.00;85.00;;;;;;8379258;28;20439;-76
2020/12/20 09:07:11;;;;;;;10.17;4.83;;;12.20;84.30;;;;;;8375354;28;20471;-76
2020/12/20 09:11:26;;;;;;;11.03;5.53;;;12.30;83.50;;;;;;8368053;28;20535;-76
2020/12/20 09:15:30;;;;;;;5.63;3.93;;;12.50;82.70;;;;;;8393213;28;20481;-76
2020/12/20 09:19:31;;;;;;;7.00;3.80;;;12.60;82.30;;;;;;8392555;28;20783;-75
2020/12/20 09:23:31;;;;;;;6.60;4.37;;;12.70;81.60;;;;;;8380414;28;20937;-74
2020/12/20 09:27:33;;;;;;;7.93;6.17;;;12.80;81.30;;;;;;8417081;28;20314;-75
2020/12/20 09:31:34;;;;;;;6.50;4.27;;;12.90;80.90;;;;;;8380201;28;20202;-76
2020/12/20 09:35:34;;;;;;;4.90;3.63;;;13.00;80.50;;;;;;8364432;28;20499;-74
2020/12/20 09:39:59;;;;;;;13.23;3.70;;;13.00;79.30;;;;;;8411301;28;20182;-76
2020/12/20 09:44:05;;;;;;;5.07;3.60;;;13.10;79.20;;;;;;8393665;28;20458;-76
2020/12/20 09:48:25;;;;;;;;;;;;;;;;;;;;;
2020/12/20 09:52:25;;;;;;;5.80;4.00;;;13.30;78.40;;;;;;8397315;28;20472;-76
2020/12/20 09:56:28;;;;;;;8.40;4.17;;;13.40;78.40;;;;;;8364058;28;20472;-77
2020/12/20 10:00:32;;;;;;;15.97;5.77;;;13.50;77.40;;;;;;8391101;28;20195;-76
2020/12/20 10:04:37;;;;;;;11.10;6.40;;;13.60;76.90;;;;;;8340459;28;20470;-77
2020/12/20 10:08:40;;;;;;;5.70;4.20;;;13.60;76.20;;;;;;8360777;28;20523;-76
2020/12/20 10:12:45;;;;;;;14.20;5.40;;;13.70;76.00;;;;;;8400280;28;20809;-76
2020/12/20 10:16:53;;;;;;;11.30;4.47;;;13.70;75.50;;;;;;8377515;28;20910;-76
2020/12/20 10:20:55;;;;;;;9.20;3.83;;;13.80;75.20;;;;;;8385413;28;20445;-77
2020/12/20 10:24:56;;;;;;;33.77;14.50;;;13.90;74.80;;;;;;8386609;28;20460;-77
2020/12/20 10:29:05;;;;;;;12.27;4.23;;;14.00;74.20;;;;;;8382294;28;20949;-77
2020/12/20 10:33:06;;;;;;;13.37;6.13;;;14.10;73.10;;;;;;8380068;28;20229;-77
2020/12/20 10:37:06;;;;;;;9.43;4.30;;;14.10;73.40;;;;;;8380219;28;20512;-77
2020/12/20 10:41:09;;;;;;;8.20;4.67;;;14.20;73.30;;;;;;8382524;28;20192;-77
2020/12/20 10:45:10;;;;;;;6.47;4.20;;;14.30;72.50;;;;;;8381083;28;20199;-76
2020/12/20 10:49:11;;;;;;;6.93;3.57;;;14.30;71.80;;;;;;8373268;28;20484;-77
2020/12/20 10:53:19;;;;;;;11.53;5.03;;;14.40;71.60;;;;;;8356396;28;20214;-77
2020/12/20 10:57:19;;;;;;;8.30;3.80;;;14.60;71.20;;;;;;8364797;28;20223;-77
2020/12/20 11:01:26;;;;;;;9.97;3.83;;;14.70;70.30;;;;;;8377988;28;20446;-76
2020/12/20 11:05:34;;;;;;;6.70;3.80;;;14.90;69.90;;;;;;8372370;28;20712;-76
2020/12/20 11:09:53;;;;;;;7.60;3.10;;;15.00;69.80;;;;;;8380807;28;20462;-78
2020/12/20 11:13:54;;;;;;;6.90;4.00;;;15.00;69.60;;;;;;8376247;28;20456;-76
2020/12/20 11:17:57;;;;;;;15.40;4.13;;;15.10;69.10;;;;;;8380058;28;20491;-76
2020/12/20 11:21:58;;;;;;;6.30;3.20;;;15.00;68.30;;;;;;8372543;28;20288;-76
2020/12/20 11:25:58;;;;;;;11.13;3.33;;;15.00;68.40;;;;;;8375024;28;20463;-76
2020/12/20 11:30:06;;;;;;;5.83;3.00;;;14.90;68.40;;;;;;8375588;28;20224;-75
2020/12/20 11:34:09;;;;;;;13.17;4.23;;;14.80;68.30;;;;;;8394593;28;20184;-76
2020/12/20 11:38:11;;;;;;;9.10;2.90;;;14.70;68.40;;;;;;8376900;28;20498;-76
2020/12/20 11:42:18;;;;;;;20.47;5.80;;;14.70;68.70;;;;;;8362847;28;20447;-76
2020/12/20 11:46:20;;;;;;;13.10;4.00;;;14.60;69.00;;;;;;8397056;28;20446;-76
2020/12/20 11:50:20;;;;;;;8.47;5.50;;;14.60;68.80;;;;;;8376877;28;20438;-76
2020/12/20 11:54:28;;;;;;;20.23;5.20;;;14.60;68.70;;;;;;8396114;28;20433;-76
2020/12/20 11:58:32;;;;;;;21.83;8.20;;;14.50;68.40;;;;;;8378158;28;20487;-77
2020/12/20 12:02:35;;;;;;;20.30;7.00;;;14.60;68.50;;;;;;8385096;28;20973;-77
2020/12/20 12:06:38;;;;;;;23.97;10.83;;;14.60;68.70;;;;;;8379024;28;20466;-77
2020/12/20 12:10:43;;;;;;;11.87;4.10;;;14.60;68.60;;;;;;8372255;28;21023;-77
2020/12/20 12:14:48;;;;;;;10.07;4.97;;;14.60;68.30;;;;;;8371238;28;20474;-77
2020/12/20 12:18:50;;;;;;;14.13;4.43;;;14.50;68.80;;;;;;8383989;28;20443;-77
2020/12/20 12:22:53;;;;;;;12.53;4.40;;;14.60;68.60;;;;;;8378689;28;20829;-77
2020/12/20 12:26:53;;;;;;;10.60;4.73;;;14.60;68.60;;;;;;8376884;28;20474;-76
2020/12/20 12:30:57;;;;;;;10.43;4.17;;;14.60;68.30;;;;;;8377350;28;20446;-76
2020/12/20 12:34:58;;;;;;;12.07;5.90;;;14.60;68.30;;;;;;8375906;28;20216;-76
2020/12/20 12:39:04;;;;;;;14.90;4.57;;;14.60;68.80;;;;;;8375210;28;20448;-77
2020/12/20 12:43:04;;;;;;;9.87;4.27;;;14.60;68.70;;;;;;8383214;28;20496;-77
2020/12/20 12:47:05;;;;;;;7.03;2.83;;;14.70;68.20;;;;;;8382119;28;20496;-76
2020/12/20 12:51:14;;;;;;;13.67;3.33;;;14.70;68.60;;;;;;8383615;28;20201;-77
2020/12/20 12:55:14;;;;;;;8.43;3.43;;;14.70;68.50;;;;;;8412658;28;20456;-77
2020/12/20 12:59:19;;;;;;;5.17;2.60;;;14.70;68.10;;;;;;8364570;28;20468;-77
2020/12/20 13:03:19;;;;;;;6.10;3.03;;;14.70;68.00;;;;;;8383391;28;20219;-76
2020/12/20 13:07:20;;;;;;;5.73;2.90;;;14.80;67.90;;;;;;8395853;28;20475;-76
2020/12/20 13:11:26;;;;;;;15.30;3.70;;;14.80;67.70;;;;;;8383334;28;20197;-77
2020/12/20 13:15:29;;;;;;;13.33;5.00;;;14.70;67.50;;;;;;8388716;28;20470;-77
2020/12/20 13:19:32;;;;;;;3.03;2.20;;;14.70;67.70;;;;;;8394054;28;20485;-76
2020/12/20 13:23:34;;;;;;;14.60;3.60;;;14.70;67.30;;;;;;8400088;28;20456;-77
2020/12/20 13:27:37;;;;;;;3.43;2.40;;;14.60;67.30;;;;;;8384702;28;20484;-78
2020/12/20 13:31:38;;;;;;;8.80;3.40;;;14.60;67.00;;;;;;8387602;28;20857;-77
2020/12/20 13:35:39;;;;;;;5.80;3.43;;;14.60;66.60;;;;;;8362680;28;21021;-77
2020/12/20 13:39:42;;;;;;;11.53;5.10;;;14.60;66.90;;;;;;8358933;28;20430;-77
2020/12/20 13:43:43;;;;;;;11.63;6.70;;;14.60;66.40;;;;;;8373689;28;20188;-77
2020/12/20 13:47:43;;;;;;;6.97;3.77;;;14.70;66.70;;;;;;8391556;28;20454;-78
2020/12/20 13:52:07;;;;;;;4.60;2.97;;;14.80;65.80;;;;;;8362657;28;20224;-77
2020/12/20 13:56:08;;;;;;;9.00;2.70;;;15.00;65.50;;;;;;8377711;28;20242;-77
2020/12/20 14:00:11;;;;;;;5.50;2.60;;;15.10;64.80;;;;;;8370247;28;20453;-77
2020/12/20 14:04:13;;;;;;;8.80;3.63;;;15.10;64.20;;;;;;8371047;28;20431;-76
2020/12/20 14:08:16;;;;;;;3.73;2.93;;;15.10;64.80;;;;;;8370816;28;20876;-77
2020/12/20 14:12:19;;;;;;;7.50;3.00;;;15.00;64.60;;;;;;8378162;28;20478;-77
2020/12/20 14:16:27;;;;;;;4.87;2.60;;;15.00;63.70;;;;;;8341468;28;20492;-76
2020/12/20 14:20:40;;;;;;;2.93;2.20;;;14.90;63.90;;;;;;8406167;28;20447;-78
2020/12/20 14:24:42;;;;;;;6.40;2.47;;;14.70;64.40;;;;;;8347056;28;20462;-76
2020/12/20 14:28:47;;;;;;;4.37;2.33;;;14.60;64.60;;;;;;8382417;28;20473;-76
2020/12/20 14:32:59;;;;;;;2.83;2.40;;;14.50;64.70;;;;;;8372349;28;20532;-76
2020/12/20 14:37:06;;;;;;;4.00;2.50;;;14.40;65.50;;;;;;8368604;28;20477;-76
2020/12/20 14:41:10;;;;;;;2.77;2.27;;;14.20;66.00;;;;;;8362876;28;20449;-76
2020/12/20 14:45:10;;;;;;;7.23;2.27;;;14.10;66.10;;;;;;8379296;28;20976;-77
2020/12/20 14:49:14;;;;;;;8.40;2.53;;;14.00;66.30;;;;;;8386602;28;20958;-79
2020/12/20 14:53:30;;;;;;;6.50;2.77;;;14.00;66.70;;;;;;8371519;28;20278;-80
2020/12/20 14:57:34;;;;;;;3.13;1.53;;;14.00;66.50;;;;;;8357855;28;21087;-79
2020/12/20 15:01:38;;;;;;;7.47;2.53;;;14.00;66.60;;;;;;8382301;28;21017;-77
2020/12/20 15:05:50;;;;;;;5.07;2.13;;;14.00;66.70;;;;;;8384989;28;20451;-81
2020/12/20 15:10:02;;;;;;;6.03;2.20;;;13.90;67.10;;;;;;8338520;28;20456;-84
2020/12/20 15:14:12;;;;;;;2.87;1.90;;;13.80;67.70;;;;;;8431312;28;20445;-81
2020/12/20 15:18:18;;;;;;;5.33;2.90;;;13.80;67.90;;;;;;8393457;28;20831;-77
2020/12/20 15:22:31;;;;;;;10.10;2.93;;;13.60;68.50;;;;;;8394853;28;20437;-78
2020/12/20 15:26:40;;;;;;;6.37;3.80;;;13.50;69.40;;;;;;8392941;28;20457;-78
2020/12/20 15:30:44;;;;;;;8.23;2.53;;;13.40;70.20;;;;;;8370784;28;20451;-76
2020/12/20 15:34:53;;;;;;;8.37;2.50;;;13.20;70.90;;;;;;8380325;28;20465;-78
2020/12/20 15:38:54;;;;;;;11.37;3.40;;;13.10;71.50;;;;;;8373884;28;20444;-77
2020/12/20 15:42:56;;;;;;;7.80;4.23;;;13.00;72.00;;;;;;8377277;28;20432;-79
2020/12/20 15:51:51;;;;;;;10.87;4.27;;;12.90;72.50;;;;;;8305038;28;20459;-79
2020/12/20 15:55:52;;;;;;;14.40;4.70;;;12.80;72.40;;;;;;8353785;28;20477;-78
2020/12/20 15:59:53;;;;;;;13.20;4.13;;;12.80;72.30;;;;;;8377139;28;20506;-78
2020/12/20 16:03:54;;;;;;;4.27;2.30;;;12.70;72.30;;;;;;8378114;28;20190;-76
2020/12/20 16:07:56;;;;;;;10.33;3.93;;;12.70;72.20;;;;;;8366709;28;20502;-75
2020/12/20 16:11:56;;;;;;;8.20;3.53;;;12.80;72.30;;;;;;8362631;28;20222;-74
2020/12/20 16:16:04;;;;;;;10.40;3.67;;;12.80;72.40;;;;;;8383551;28;20464;-75
2020/12/20 16:20:06;;;;;;;5.77;2.87;;;12.80;72.40;;;;;;8397865;28;20191;-74
2020/12/20 16:24:09;;;;;;;7.80;4.13;;;12.80;72.40;;;;;;8409804;28;21238;-75
2020/12/20 16:28:13;;;;;;;16.73;4.17;;;12.90;72.30;;;;;;8408953;28;20451;-75
2020/12/20 16:32:42;;;;;;;10.90;3.17;;;12.80;72.50;;;;;;8395091;28;20961;-74
2020/12/20 16:36:48;;;;;;;9.37;5.10;;;12.80;73.00;;;;;;8362795;28;20551;-73
2020/12/20 16:40:50;;;;;;;13.13;4.67;;;12.70;73.50;;;;;;8380910;28;20437;-74
2020/12/20 16:44:50;;;;;;;12.97;6.03;;;12.60;73.90;;;;;;8362178;28;20450;-73
2020/12/20 16:48:51;;;;;;;8.23;4.00;;;12.50;74.40;;;;;;8351440;28;20444;-74
2020/12/20 16:52:52;;;;;;;15.23;6.07;;;12.50;74.60;;;;;;8371371;28;20194;-72
2020/12/20 16:56:53;;;;;;;7.60;3.90;;;12.40;74.40;;;;;;8371616;28;20202;-74
2020/12/20 17:00:57;;;;;;;7.83;4.07;;;12.40;74.20;;;;;;8391473;28;20831;-76
2020/12/20 17:04:58;;;;;;;6.57;3.33;;;12.40;73.80;;;;;;8359380;28;20447;-74
2020/12/20 17:08:59;;;;;;;5.03;3.53;;;12.40;73.80;;;;;;8359035;28;20221;-75
2020/12/20 17:13:10;;;;;;;5.67;3.63;;;12.40;73.80;;;;;;8396448;28;20195;-75
2020/12/20 17:17:11;;;;;;;11.30;5.33;;;12.40;74.00;;;;;;8387264;28;20984;-75
2020/12/20 17:21:18;;;;;;;10.03;4.27;;;12.30;73.90;;;;;;8359489;28;20468;-75
2020/12/20 17:25:18;;;;;;;10.70;4.13;;;12.20;74.20;;;;;;8377265;28;20468;-74
2020/12/20 17:29:20;;;;;;;11.00;4.80;;;12.20;74.40;;;;;;8377744;28;20453;-74
2020/12/20 17:33:26;;;;;;;15.60;5.63;;;12.20;74.40;;;;;;8373923;28;20194;-75
2020/12/20 17:37:28;;;;;;;7.00;4.03;;;12.10;74.40;;;;;;8381315;28;21071;-73
2020/12/20 17:41:36;;;;;;;16.33;3.67;;;12.10;74.50;;;;;;8382430;28;20709;-76
2020/12/20 17:45:37;;;;;;;6.70;4.50;;;12.00;74.50;;;;;;8383544;28;20448;-75
2020/12/20 17:49:41;;;;;;;15.50;4.13;;;11.90;74.70;;;;;;8380217;28;20486;-76
2020/12/20 17:53:42;;;;;;;12.83;6.07;;;11.80;75.10;;;;;;8380496;28;20448;-75
2020/12/20 17:58:10;;;;;;;7.73;4.00;;;11.70;75.10;;;;;;8385910;28;20475;-76
2020/12/20 18:02:15;;;;;;;6.63;3.30;;;11.60;75.30;;;;;;8398051;28;20216;-75
2020/12/20 18:06:16;;;;;;;16.30;4.87;;;11.50;75.50;;;;;;8382992;28;20500;-76
2020/12/20 18:10:21;;;;;;;8.10;3.63;;;11.50;75.20;;;;;;8383179;28;20217;-77
2020/12/20 18:14:32;;;;;;;13.87;5.00;;;11.40;75.10;;;;;;8397476;28;20642;-76
2020/12/20 18:18:37;;;;;;;12.07;4.80;;;11.40;75.20;;;;;;8398024;28;20773;-76
2020/12/20 18:22:41;;;;;;;14.40;4.77;;;11.20;75.40;;;;;;8384993;28;20767;-75
2020/12/20 18:26:57;;;;;;;10.63;4.70;;;11.20;75.60;;;;;;8400458;28;20475;-76
2020/12/20 18:31:04;;;;;;;11.93;4.63;;;11.10;75.70;;;;;;8363336;28;20455;-75
2020/12/20 18:35:05;;;;;;;12.67;4.20;;;10.90;76.00;;;;;;8380812;28;20468;-75
2020/12/20 18:39:09;;;;;;;11.73;4.97;;;10.80;76.50;;;;;;8378034;28;20494;-74
2020/12/20 18:43:14;;;;;;;10.63;6.13;;;10.50;77.00;;;;;;8377041;28;20537;-77
2020/12/20 18:47:20;;;;;;;22.03;8.70;;;10.30;77.40;;;;;;8381278;28;20931;-75
2020/12/20 18:51:20;;;;;;;27.70;8.03;;;10.10;78.30;;;;;;8378458;28;20505;-76
2020/12/20 18:55:25;;;;;;;19.30;7.80;;;9.90;78.60;;;;;;8383881;28;20616;-76
2020/12/20 18:59:27;;;;;;;20.90;6.20;;;9.70;79.10;;;;;;8374543;28;20192;-76
2020/12/20 19:03:32;;;;;;;12.43;7.40;;;9.50;80.00;;;;;;8352930;28;20454;-77
2020/12/20 19:07:39;;;;;;;17.90;7.47;;;9.40;80.10;;;;;;8368196;28;20455;-75
2020/12/20 19:11:41;;;;;;;18.10;6.70;;;9.30;80.20;;;;;;8369998;28;20457;-75
2020/12/20 19:15:46;;;;;;;15.13;6.47;;;9.20;80.50;;;;;;8371492;28;20466;-76
2020/12/20 19:19:47;;;;;;;19.57;7.00;;;9.10;80.80;;;;;;8356066;28;21694;-76
2020/12/20 19:23:52;;;;;;;17.73;7.63;;;9.00;82.10;;;;;;8351474;28;20478;-76
2020/12/20 19:27:54;;;;;;;14.80;7.83;;;9.00;82.90;;;;;;8368224;28;20457;-76
2020/12/20 19:32:01;;;;;;;16.80;7.90;;;9.10;83.30;;;;;;8355540;28;20543;-78
2020/12/20 19:36:02;;;;;;;18.00;8.70;;;9.20;83.20;;;;;;8375083;28;20472;-74
2020/12/20 19:40:05;;;;;;;19.73;8.37;;;9.20;82.60;;;;;;8370754;28;20480;-76
2020/12/20 19:44:06;;;;;;;23.70;9.07;;;9.10;82.40;;;;;;8368069;28;20441;-76
2020/12/20 19:48:07;;;;;;;20.93;10.37;;;9.10;82.30;;;;;;8368381;28;20547;-76
2020/12/20 19:52:12;;;;;;;27.73;15.23;;;9.00;82.50;;;;;;8374147;28;20464;-77
2020/12/20 19:56:18;;;;;;;28.00;12.77;;;8.90;82.90;;;;;;8372807;28;20465;-75
2020/12/20 20:00:20;;;;;;;28.10;15.23;;;8.80;83.00;;;;;;8352948;28;20450;-76
2020/12/20 20:04:24;;;;;;;38.13;17.10;;;8.70;83.10;;;;;;8357929;28;20449;-76
2020/12/20 20:08:25;;;;;;;31.33;18.07;;;8.60;83.30;;;;;;8385097;28;20476;-78
2020/12/20 20:12:28;;;;;;;27.77;16.17;;;8.40;83.40;;;;;;8368964;28;20456;-75
2020/12/20 20:16:30;;;;;;;32.77;17.70;;;8.30;83.70;;;;;;8365484;28;20210;-76
2020/12/20 20:20:31;;;;;;;40.53;21.43;;;8.10;83.80;;;;;;8380457;28;20444;-76
2020/12/20 20:24:32;;;;;;;33.43;20.50;;;8.00;84.30;;;;;;8370331;28;20460;-76
2020/12/20 20:28:34;;;;;;;33.00;18.70;;;7.90;84.90;;;;;;8350678;28;20198;-76
2020/12/20 20:32:35;;;;;;;26.13;15.97;;;7.90;85.90;;;;;;8369752;28;20199;-76
2020/12/20 20:36:37;;;;;;;26.50;14.90;;;8.00;85.90;;;;;;8369259;28;20464;-75
2020/12/20 20:40:42;;;;;;;32.40;12.40;;;7.90;85.90;;;;;;8369744;28;20454;-75
2020/12/20 20:44:43;;;;;;;26.03;8.57;;;8.00;86.40;;;;;;8354192;28;20453;-76
2020/12/20 20:48:49;;;;;;;16.20;8.27;;;8.00;86.70;;;;;;8364509;28;20452;-76
2020/12/20 20:53:00;;;;;;;11.90;6.63;;;8.10;86.20;;;;;;8357198;28;20445;-76
2020/12/20 20:57:01;;;;;;;11.77;6.60;;;8.10;86.20;;;;;;8371199;28;21055;-75
2020/12/20 21:01:05;;;;;;;17.43;6.37;;;8.00;85.80;;;;;;8346323;28;20932;-76
2020/12/20 21:05:06;;;;;;;19.27;7.53;;;8.00;86.20;;;;;;8341831;28;20493;-75